createdAt,value
2023-11-29T00:01:07.581Z,1.62
2023-11-29T00:03:34.038Z,1.59
2023-11-29T00:06:00.620Z,1.63
2023-11-29T00:08:27.301Z,1.64
2023-11-29T00:10:53.947Z,1.62
2023-11-29T00:13:21.289Z,1.63
2023-11-29T00:15:48.575Z,1.60
2023-11-29T00:18:15.863Z,1.64
2023-11-29T00:20:42.638Z,1.66
2023-11-29T00:23:09.468Z,1.65
2023-11-29T00:25:35.933Z,1.62
2023-11-29T00:28:02.856Z,1.66
2023-11-29T00:30:30.432Z,1.66
2023-11-29T00:32:57.903Z,1.64
2023-11-29T00:35:25.483Z,1.66
2023-11-29T00:37:52.113Z,1.65
2023-11-29T00:40:19.105Z,1.66
2023-11-29T00:42:45.890Z,1.69
2023-11-29T00:45:12.662Z,1.69
2023-11-29T00:47:39.574Z,1.69
2023-11-29T00:50:07.215Z,1.69
2023-11-29T00:52:33.757Z,1.72
2023-11-29T00:55:00.267Z,1.71
2023-11-29T00:57:26.849Z,1.73
2023-11-29T00:59:53.427Z,1.75
2023-11-29T01:02:20.081Z,1.71
2023-11-29T01:04:46.702Z,1.76
2023-11-29T01:07:13.380Z,1.77
2023-11-29T01:09:39.835Z,1.77
2023-11-29T01:12:06.531Z,1.75
2023-11-29T01:14:33.076Z,1.80
2023-11-29T01:16:59.652Z,1.82
2023-11-29T01:19:26.191Z,1.84
2023-11-29T01:21:52.692Z,1.85
2023-11-29T01:24:19.458Z,1.85
2023-11-29T01:26:46.062Z,1.87
2023-11-29T01:29:12.821Z,1.88
2023-11-29T01:31:39.404Z,1.90
2023-11-29T01:34:05.977Z,1.91
2023-11-29T01:36:33.673Z,1.92
2023-11-29T01:39:00.241Z,1.91
2023-11-29T01:41:27.508Z,1.91
2023-11-29T01:43:55.941Z,1.91
2023-11-29T01:46:22.540Z,1.95
2023-11-29T01:48:49.098Z,1.94
2023-11-29T01:51:15.778Z,1.96
2023-11-29T01:53:43.915Z,1.96
2023-11-29T01:56:10.886Z,1.98
2023-11-29T01:58:37.827Z,1.99
2023-11-29T02:01:04.373Z,2.01
2023-11-29T02:03:31.371Z,1.98
2023-11-29T02:05:58.456Z,2.02
2023-11-29T02:08:25.581Z,2.00
2023-11-29T02:10:52.213Z,2.00
2023-11-29T02:13:19.081Z,2.05
2023-11-29T02:15:46.202Z,2.06
2023-11-29T02:18:14.641Z,2.05
2023-11-29T02:20:41.432Z,2.07
2023-11-29T02:23:25.959Z,2.07
2023-11-29T02:25:52.487Z,2.08
2023-11-29T02:28:19.065Z,2.09
2023-11-29T02:30:45.804Z,2.09
2023-11-29T02:33:12.437Z,2.11
2023-11-29T02:35:39.107Z,2.13
2023-11-29T02:38:05.541Z,2.13
2023-11-29T02:40:32.933Z,2.12
2023-11-29T02:43:01.338Z,2.15
2023-11-29T02:45:28.387Z,2.16
2023-11-29T02:47:55.894Z,2.17
2023-11-29T02:50:22.515Z,2.18
2023-11-29T02:52:49.488Z,2.18
2023-11-29T02:55:16.034Z,2.19
2023-11-29T02:57:42.598Z,2.19
2023-11-29T03:00:10.447Z,2.21
2023-11-29T03:02:37.122Z,2.22
2023-11-29T03:05:03.923Z,2.21
2023-11-29T03:07:31.411Z,2.23
2023-11-29T03:09:57.881Z,2.24
2023-11-29T03:12:24.366Z,2.26
2023-11-29T03:14:51.002Z,2.25
2023-11-29T03:17:17.647Z,2.27
2023-11-29T03:19:44.146Z,2.26
2023-11-29T03:22:10.574Z,2.28
2023-11-29T03:24:37.073Z,2.27
2023-11-29T03:27:03.626Z,2.31
2023-11-29T03:29:30.147Z,2.31
2023-11-29T03:31:57.215Z,2.28
2023-11-29T03:34:24.643Z,2.30
2023-11-29T03:36:51.227Z,2.34
2023-11-29T03:39:17.700Z,2.34
2023-11-29T03:41:44.269Z,2.34
2023-11-29T03:44:10.882Z,2.35
2023-11-29T03:46:37.404Z,2.33
2023-11-29T03:49:04.649Z,2.37
2023-11-29T03:51:38.055Z,2.38
2023-11-29T03:54:08.527Z,2.37
2023-11-29T03:56:35.096Z,2.33
2023-11-29T03:59:01.608Z,2.40
2023-11-29T04:01:33.260Z,2.41
2023-11-29T04:03:59.940Z,2.33
2023-11-29T04:06:27.783Z,2.41
2023-11-29T04:08:55.556Z,2.44
2023-11-29T04:11:24.237Z,2.41
2023-11-29T04:13:51.029Z,2.45
2023-11-29T04:16:21.631Z,2.46
2023-11-29T04:18:49.364Z,2.47
2023-11-29T04:21:28.418Z,2.43
2023-11-29T04:23:56.459Z,2.47
2023-11-29T04:26:27.944Z,2.48
2023-11-29T04:28:56.801Z,2.46
2023-11-29T04:31:24.926Z,2.46
2023-11-29T04:33:51.585Z,2.46
2023-11-29T04:36:18.347Z,2.51
2023-11-29T04:38:45.959Z,2.51
2023-11-29T04:41:12.609Z,2.49
2023-11-29T04:43:39.147Z,2.53
2023-11-29T04:46:05.693Z,2.54
2023-11-29T04:48:32.257Z,2.52
2023-11-29T04:50:58.751Z,2.52
2023-11-29T04:53:25.386Z,2.52
2023-11-29T04:55:53.807Z,2.57
2023-11-29T04:58:23.092Z,2.56
2023-11-29T05:00:49.902Z,2.57
2023-11-29T05:03:16.868Z,2.53
2023-11-29T05:05:43.867Z,2.55
2023-11-29T05:08:10.650Z,2.60
2023-11-29T05:10:38.223Z,2.59
2023-11-29T05:13:05.289Z,2.60
2023-11-29T05:15:34.289Z,2.61
2023-11-29T05:18:05.406Z,2.62
2023-11-29T05:20:32.295Z,2.60
2023-11-29T05:22:58.965Z,2.63
2023-11-29T05:25:26.128Z,2.61
2023-11-29T05:27:52.640Z,2.63
2023-11-29T05:30:19.539Z,2.64
2023-11-29T05:32:47.224Z,2.63
2023-11-29T05:35:14.683Z,2.65
2023-11-29T05:37:42.238Z,2.65
2023-11-29T05:40:09.664Z,2.66
2023-11-29T05:42:36.899Z,2.62
2023-11-29T05:45:04.950Z,2.66
2023-11-29T05:47:31.895Z,2.66
2023-11-29T05:50:00.991Z,2.68
2023-11-29T05:52:27.910Z,2.68
2023-11-29T05:54:54.504Z,2.69
2023-11-29T05:57:21.013Z,2.69
2023-11-29T05:59:48.026Z,2.70
2023-11-29T06:02:15.580Z,2.70
2023-11-29T06:04:42.194Z,2.71
2023-11-29T06:07:08.711Z,2.71
2023-11-29T06:09:37.814Z,2.71
2023-11-29T06:12:04.858Z,2.68
2023-11-29T06:14:31.420Z,2.69
2023-11-29T06:16:57.947Z,2.73
2023-11-29T06:19:24.444Z,2.73
2023-11-29T06:21:50.960Z,2.69
2023-11-29T06:24:18.628Z,2.76
2023-11-29T06:26:46.404Z,2.75
2023-11-29T06:29:13.147Z,2.75
2023-11-29T06:31:39.675Z,2.76
2023-11-29T06:34:08.827Z,2.76
2023-11-29T06:36:38.313Z,2.77
2023-11-29T06:39:05.243Z,2.75
2023-11-29T06:41:31.933Z,2.70
2023-11-29T06:43:58.807Z,2.79
2023-11-29T06:46:25.355Z,2.75
2023-11-29T06:48:51.888Z,2.76
2023-11-29T06:51:18.357Z,2.76
2023-11-29T06:53:44.923Z,2.77
2023-11-29T06:56:11.775Z,2.80
2023-11-29T06:58:39.236Z,2.81
2023-11-29T07:01:08.510Z,2.74
2023-11-29T07:03:35.145Z,2.76
2023-11-29T07:06:02.150Z,2.83
2023-11-29T07:08:29.141Z,2.81
2023-11-29T07:10:55.731Z,2.82
2023-11-29T07:13:22.220Z,2.82
2023-11-29T07:15:48.817Z,2.79
2023-11-29T07:18:15.454Z,2.84
2023-11-29T07:20:46.171Z,2.85
2023-11-29T07:23:13.796Z,2.84
2023-11-29T07:25:40.466Z,2.84
2023-11-29T07:28:06.945Z,2.86
2023-11-29T07:30:33.521Z,2.83
2023-11-29T07:33:00.146Z,2.85
2023-11-29T07:35:27.203Z,2.84
2023-11-29T07:37:53.740Z,2.84
2023-11-29T07:40:22.287Z,2.86
2023-11-29T07:42:50.214Z,2.85
2023-11-29T07:45:16.917Z,2.85
2023-11-29T07:47:44.741Z,2.87
2023-11-29T07:50:15.652Z,2.89
2023-11-29T07:52:42.587Z,2.87
2023-11-29T07:55:09.689Z,2.89
2023-11-29T07:57:36.170Z,2.88
2023-11-29T08:00:05.169Z,2.89
2023-11-29T08:02:38.808Z,2.89
2023-11-29T08:05:05.708Z,2.84
2023-11-29T08:07:34.112Z,2.90
2023-11-29T08:10:02.886Z,2.90
2023-11-29T08:12:30.181Z,2.89
2023-11-29T08:14:56.739Z,2.86
2023-11-29T08:17:23.369Z,2.86
2023-11-29T08:19:50.016Z,2.92
2023-11-29T08:22:16.542Z,2.89
2023-11-29T08:24:43.117Z,2.91
2023-11-29T08:27:10.472Z,2.93
2023-11-29T08:29:37.916Z,2.90
2023-11-29T08:32:04.794Z,2.93
2023-11-29T08:34:31.279Z,2.91
2023-11-29T08:36:57.764Z,2.95
2023-11-29T08:39:24.277Z,2.93
2023-11-29T08:41:50.881Z,2.95
2023-11-29T08:44:17.517Z,2.95
2023-11-29T08:46:44.630Z,2.96
2023-11-29T08:49:11.320Z,2.98
2023-11-29T08:51:37.919Z,2.95
2023-11-29T08:54:04.850Z,2.91
2023-11-29T08:56:31.327Z,2.95
2023-11-29T08:58:57.917Z,2.98
2023-11-29T09:01:24.512Z,2.99
2023-11-29T09:03:51.477Z,2.99
2023-11-29T09:06:18.371Z,3.02
2023-11-29T09:08:45.761Z,3.01
2023-11-29T09:11:12.941Z,3.04
2023-11-29T09:13:40.168Z,3.02
2023-11-29T09:16:08.378Z,3.04
2023-11-29T09:18:35.505Z,3.02
2023-11-29T09:21:03.868Z,3.06
2023-11-29T09:23:30.584Z,3.07
2023-11-29T09:25:57.154Z,3.07
2023-11-29T09:28:23.626Z,3.07
2023-11-29T09:30:50.163Z,3.08
2023-11-29T09:33:16.894Z,3.12
2023-11-29T09:35:44.229Z,3.08
2023-11-29T09:38:11.796Z,3.09
2023-11-29T09:40:38.384Z,3.13
2023-11-29T09:43:07.167Z,3.12
2023-11-29T09:45:33.908Z,3.14
2023-11-29T09:48:01.550Z,3.15
2023-11-29T09:50:28.972Z,3.15
2023-11-29T09:52:56.460Z,3.15
2023-11-29T09:55:23.014Z,3.18
2023-11-29T09:57:49.681Z,3.15
2023-11-29T10:00:17.999Z,3.16
2023-11-29T10:02:44.804Z,3.22
2023-11-29T10:05:18.798Z,3.23
2023-11-29T10:07:46.485Z,3.21
2023-11-29T10:10:14.069Z,3.24
2023-11-29T10:12:45.451Z,3.26
2023-11-29T10:15:12.916Z,3.24
2023-11-29T10:17:43.242Z,3.27
2023-11-29T10:20:12.884Z,3.25
2023-11-29T10:22:39.514Z,3.29
2023-11-29T10:25:19.196Z,3.29
2023-11-29T10:27:46.704Z,3.29
2023-11-29T10:30:14.598Z,3.28
2023-11-29T10:32:42.654Z,3.34
2023-11-29T10:35:14.500Z,3.32
2023-11-29T10:37:45.936Z,3.33
2023-11-29T10:40:15.544Z,3.35
2023-11-29T10:42:51.277Z,3.34
2023-11-29T10:45:21.961Z,3.35
2023-11-29T10:47:59.689Z,3.36
2023-11-29T10:50:29.074Z,3.34
2023-11-29T10:52:55.664Z,3.38
2023-11-29T10:55:23.819Z,3.29
2023-11-29T10:57:58.268Z,3.38
2023-11-29T11:00:30.092Z,3.38
2023-11-29T11:02:57.092Z,3.38
2023-11-29T11:05:25.244Z,3.40
2023-11-29T11:07:53.467Z,3.41
2023-11-29T11:10:27.027Z,3.38
2023-11-29T11:12:56.905Z,3.41
2023-11-29T11:15:29.329Z,3.41
2023-11-29T11:18:01.807Z,3.42
2023-11-29T11:20:51.429Z,3.41
2023-11-29T11:23:28.289Z,3.38
2023-11-29T11:25:57.658Z,3.40
2023-11-29T11:28:38.498Z,3.39
2023-11-29T11:31:10.171Z,3.37
2023-11-29T11:34:09.291Z,3.41
2023-11-29T11:36:37.270Z,3.43
2023-11-29T11:39:04.361Z,3.43
2023-11-29T11:41:34.593Z,3.41
2023-11-29T11:44:01.062Z,3.41
2023-11-29T11:46:28.649Z,3.43
2023-11-29T11:48:55.438Z,3.44
2023-11-29T11:51:22.331Z,3.46
2023-11-29T11:53:49.014Z,3.45
2023-11-29T11:56:23.132Z,3.43
2023-11-29T11:58:50.796Z,3.45
2023-11-29T12:01:17.271Z,3.47
2023-11-29T12:03:43.966Z,3.47
2023-11-29T12:06:10.991Z,3.47
2023-11-29T12:08:38.720Z,3.50
2023-11-29T12:11:08.603Z,3.45
2023-11-29T12:13:35.861Z,3.49
2023-11-29T12:16:13.221Z,3.45
2023-11-29T12:18:41.016Z,3.43
2023-11-29T12:21:08.322Z,3.45
2023-11-29T12:23:37.691Z,3.45
2023-11-29T12:26:04.856Z,3.51
2023-11-29T12:28:33.558Z,3.52
2023-11-29T12:31:00.649Z,3.53
2023-11-29T12:33:27.364Z,3.53
2023-11-29T12:35:54.096Z,3.51
2023-11-29T12:38:20.769Z,3.53
2023-11-29T12:40:49.228Z,3.55
2023-11-29T12:43:15.866Z,3.55
2023-11-29T12:45:42.476Z,3.56
2023-11-29T12:48:09.012Z,3.54
2023-11-29T12:50:36.355Z,3.57
2023-11-29T12:53:02.889Z,3.54
2023-11-29T12:55:29.430Z,3.57
2023-11-29T12:57:56.510Z,3.59
2023-11-29T13:00:23.131Z,3.56
2023-11-29T13:02:49.853Z,3.57
2023-11-29T13:05:16.473Z,3.61
2023-11-29T13:07:42.928Z,3.57
2023-11-29T13:10:09.744Z,3.57
2023-11-29T13:12:36.917Z,3.62
2023-11-29T13:15:04.805Z,3.63
2023-11-29T13:17:31.873Z,3.62
2023-11-29T13:19:58.389Z,3.60
2023-11-29T13:22:24.928Z,3.60
2023-11-29T13:24:52.112Z,3.59
2023-11-29T13:27:18.715Z,3.61
2023-11-29T13:29:45.369Z,3.60
2023-11-29T13:32:14.387Z,3.60
2023-11-29T13:34:41.728Z,3.60
2023-11-29T13:37:08.975Z,3.63
2023-11-29T13:39:35.642Z,3.63
2023-11-29T13:42:02.229Z,3.62
2023-11-29T13:44:29.699Z,3.63
2023-11-29T13:46:56.976Z,3.63
2023-11-29T13:49:23.922Z,3.60
2023-11-29T13:52:00.998Z,3.63
2023-11-29T13:54:35.773Z,3.63
2023-11-29T13:57:03.015Z,3.63
2023-11-29T13:59:29.679Z,3.62
2023-11-29T14:01:56.419Z,3.61
2023-11-29T14:04:23.314Z,3.56
2023-11-29T14:06:50.025Z,3.63
2023-11-29T14:09:16.478Z,3.62
2023-11-29T14:11:44.427Z,3.62
2023-11-29T14:14:10.956Z,3.62
2023-11-29T14:16:39.748Z,3.62
2023-11-29T14:19:06.440Z,3.62
2023-11-29T14:21:33.111Z,3.61
2023-11-29T14:23:59.695Z,3.60
2023-11-29T14:26:26.256Z,3.59
2023-11-29T14:28:52.740Z,3.59
2023-11-29T14:31:20.032Z,3.58
2023-11-29T14:33:46.700Z,3.57
2023-11-29T14:36:13.622Z,3.54
2023-11-29T14:38:40.277Z,3.53
2023-11-29T14:41:12.011Z,3.54
2023-11-29T14:43:39.315Z,3.53
2023-11-29T14:46:06.129Z,3.50
2023-11-29T14:48:33.716Z,3.51
2023-11-29T14:51:01.707Z,3.47
2023-11-29T14:53:28.210Z,3.49
2023-11-29T14:55:55.048Z,3.44
2023-11-29T14:58:24.819Z,3.44
2023-11-29T15:00:51.346Z,3.41
2023-11-29T15:03:17.862Z,3.42
2023-11-29T15:05:44.485Z,3.42
2023-11-29T15:08:11.632Z,3.37
2023-11-29T15:10:38.228Z,3.39
2023-11-29T15:13:04.724Z,3.33
2023-11-29T15:15:31.210Z,3.36
2023-11-29T15:17:58.979Z,3.36
2023-11-29T15:20:26.554Z,3.36
2023-11-29T15:22:53.041Z,3.34
2023-11-29T15:25:21.324Z,3.25
2023-11-29T15:27:48.496Z,3.32
2023-11-29T15:30:15.807Z,3.31
2023-11-29T15:32:42.523Z,3.30
2023-11-29T15:35:09.278Z,3.29
2023-11-29T15:37:35.906Z,3.25
2023-11-29T15:40:02.406Z,3.27
2023-11-29T15:42:29.612Z,3.27
2023-11-29T15:44:56.332Z,3.25
2023-11-29T15:47:23.294Z,3.25
2023-11-29T15:49:49.905Z,3.25
2023-11-29T15:52:16.913Z,3.23
2023-11-29T15:54:43.435Z,3.22
2023-11-29T15:57:10.185Z,3.22
2023-11-29T15:59:37.024Z,3.19
2023-11-29T16:02:03.741Z,3.19
2023-11-29T16:04:30.543Z,3.18
2023-11-29T16:06:57.033Z,3.17
2023-11-29T16:09:23.572Z,3.15
2023-11-29T16:11:52.484Z,3.17
2023-11-29T16:14:19.212Z,3.16
2023-11-29T16:16:45.766Z,3.12
2023-11-29T16:19:12.355Z,3.12
2023-11-29T16:21:39.710Z,3.11
2023-11-29T16:24:06.455Z,3.12
2023-11-29T16:26:32.964Z,3.10
2023-11-29T16:28:59.755Z,3.09
2023-11-29T16:31:27.803Z,3.05
2023-11-29T16:33:55.086Z,3.04
2023-11-29T16:36:21.842Z,3.07
2023-11-29T16:38:48.371Z,3.07
2023-11-29T16:41:17.009Z,3.05
2023-11-29T16:43:46.328Z,3.03
2023-11-29T16:46:12.955Z,3.02
2023-11-29T16:48:39.755Z,3.01
2023-11-29T16:51:07.113Z,3.02
2023-11-29T16:53:33.912Z,3.02
2023-11-29T16:56:03.354Z,2.99
2023-11-29T16:58:29.784Z,2.98
2023-11-29T17:00:56.290Z,2.98
2023-11-29T17:03:22.953Z,2.98
2023-11-29T17:05:49.686Z,2.90
2023-11-29T17:08:16.280Z,2.98
2023-11-29T17:10:42.785Z,2.91
2023-11-29T17:13:09.271Z,2.95
2023-11-29T17:15:36.863Z,2.94
2023-11-29T17:18:03.648Z,2.95
2023-11-29T17:20:30.795Z,2.94
2023-11-29T17:22:57.256Z,2.92
2023-11-29T17:25:23.933Z,2.94
2023-11-29T17:27:50.473Z,2.90
2023-11-29T17:30:17.061Z,2.91
2023-11-29T17:32:44.387Z,2.91
2023-11-29T17:35:12.253Z,2.89
2023-11-29T17:37:40.670Z,2.84
2023-11-29T17:40:08.546Z,2.88
2023-11-29T17:42:35.122Z,2.88
2023-11-29T17:45:01.815Z,2.88
2023-11-29T17:47:28.369Z,2.87
2023-11-29T17:49:54.807Z,2.82
2023-11-29T17:52:21.361Z,2.84
2023-11-29T17:54:48.269Z,2.77
2023-11-29T17:57:14.770Z,2.82
2023-11-29T17:59:41.226Z,2.78
2023-11-29T18:02:07.908Z,2.79
2023-11-29T18:04:35.425Z,2.77
2023-11-29T18:07:01.957Z,2.74
2023-11-29T18:09:29.174Z,2.69
2023-11-29T18:11:55.715Z,2.69
2023-11-29T18:14:22.282Z,2.68
2023-11-29T18:16:49.038Z,2.66
2023-11-29T18:19:16.677Z,2.67
2023-11-29T18:21:43.240Z,2.65
2023-11-29T18:24:09.913Z,2.63
2023-11-29T18:26:36.403Z,2.55
2023-11-29T18:29:02.894Z,2.62
2023-11-29T18:31:29.469Z,2.59
2023-11-29T18:33:55.954Z,2.58
2023-11-29T18:36:22.440Z,2.53
2023-11-29T18:38:50.523Z,2.51
2023-11-29T18:41:17.199Z,2.52
2023-11-29T18:43:43.696Z,2.54
2023-11-29T18:46:10.703Z,2.52
2023-11-29T18:48:37.442Z,2.47
2023-11-29T18:51:04.264Z,2.49
2023-11-29T18:53:31.610Z,2.45
2023-11-29T18:55:59.531Z,2.42
2023-11-29T18:58:26.066Z,2.43
2023-11-29T19:00:52.510Z,2.41
2023-11-29T19:03:19.237Z,2.38
2023-11-29T19:05:46.753Z,2.36
2023-11-29T19:08:13.593Z,2.35
2023-11-29T19:10:42.079Z,2.32
2023-11-29T19:13:08.741Z,2.31
2023-11-29T19:15:35.336Z,2.31
2023-11-29T19:18:01.940Z,2.28
2023-11-29T19:20:28.498Z,2.27
2023-11-29T19:22:55.054Z,2.25
2023-11-29T19:25:21.597Z,2.26
2023-11-29T19:27:48.154Z,2.23
2023-11-29T19:30:14.916Z,2.23
2023-11-29T19:32:41.533Z,2.22
2023-11-29T19:35:18.306Z,2.19
2023-11-29T19:37:51.940Z,2.15
2023-11-29T19:40:18.454Z,2.14
2023-11-29T19:42:44.949Z,2.13
2023-11-29T19:45:11.729Z,2.11
2023-11-29T19:47:38.630Z,2.09
2023-11-29T19:50:06.254Z,2.12
2023-11-29T19:52:40.962Z,2.08
2023-11-29T19:55:14.324Z,2.04
2023-11-29T19:57:41.011Z,2.07
2023-11-29T20:00:08.163Z,2.05
2023-11-29T20:02:34.739Z,2.05
2023-11-29T20:05:01.753Z,2.05
2023-11-29T20:07:28.328Z,2.02
2023-11-29T20:09:55.009Z,2.02
2023-11-29T20:12:21.601Z,1.99
2023-11-29T20:17:15.876Z,1.98
2023-11-29T20:19:42.478Z,1.96
2023-11-29T20:22:08.978Z,1.96
2023-11-29T20:24:35.556Z,1.94
2023-11-29T20:27:02.166Z,1.89
2023-11-29T20:29:28.638Z,1.90
2023-11-29T20:31:55.107Z,1.90
2023-11-29T20:34:30.661Z,1.86
2023-11-29T20:37:05.970Z,1.82
2023-11-29T20:39:33.595Z,1.83
2023-11-29T20:42:00.574Z,1.79
2023-11-29T20:44:28.365Z,1.82
2023-11-29T20:46:55.123Z,1.81
2023-11-29T20:49:22.241Z,1.75
2023-11-29T20:51:49.110Z,1.73
2023-11-29T20:54:17.065Z,1.76
2023-11-29T20:56:44.168Z,1.74
2023-11-29T20:59:13.253Z,1.73
2023-11-29T21:01:40.271Z,1.66
2023-11-29T21:04:10.008Z,1.69
2023-11-29T21:06:38.148Z,1.69
2023-11-29T21:09:06.144Z,1.66
2023-11-29T21:11:34.995Z,1.65
2023-11-29T21:14:01.453Z,1.63
2023-11-29T21:16:27.999Z,1.63
2023-11-29T21:18:55.203Z,1.60
2023-11-29T21:21:21.916Z,1.57
2023-11-29T21:23:48.502Z,1.59
2023-11-29T21:26:14.990Z,1.58
2023-11-29T21:28:41.509Z,1.53
2023-11-29T21:31:08.058Z,1.55
2023-11-29T21:33:35.270Z,1.54
2023-11-29T21:36:01.964Z,1.52
2023-11-29T21:38:28.577Z,1.48
2023-11-29T21:40:55.366Z,1.44
2023-11-29T21:43:22.072Z,1.43
2023-11-29T21:45:48.592Z,1.43
2023-11-29T21:48:15.229Z,1.40
2023-11-29T21:50:41.880Z,1.39
2023-11-29T21:53:09.081Z,1.40
2023-11-29T21:55:35.884Z,1.37
2023-11-29T21:58:02.398Z,1.37
2023-11-29T22:00:29.411Z,1.38
2023-11-29T22:02:55.971Z,1.37
2023-11-29T22:05:24.370Z,1.37
2023-11-29T22:07:51.317Z,1.35
2023-11-29T22:10:18.265Z,1.34
2023-11-29T22:12:44.769Z,1.31
2023-11-29T22:15:11.356Z,1.29
2023-11-29T22:17:38.061Z,1.31
2023-11-29T22:20:05.096Z,1.24
2023-11-29T22:22:31.526Z,1.28
2023-11-29T22:24:58.099Z,1.22
2023-11-29T22:27:24.578Z,1.24
2023-11-29T22:29:51.208Z,1.24
2023-11-29T22:32:17.700Z,1.17
2023-11-29T22:34:44.188Z,1.21
2023-11-29T22:37:11.636Z,1.21
2023-11-29T22:39:39.672Z,1.18
2023-11-29T22:42:06.236Z,1.20
2023-11-29T22:44:32.764Z,1.18
2023-11-29T22:46:59.278Z,1.17
2023-11-29T22:49:26.273Z,1.12
2023-11-29T22:51:52.853Z,1.15
2023-11-29T22:54:19.489Z,1.09
2023-11-29T22:56:46.060Z,1.09
2023-11-29T22:59:12.513Z,1.11
2023-11-29T23:01:39.176Z,1.05
2023-11-29T23:04:05.813Z,1.08
2023-11-29T23:06:32.972Z,1.06
2023-11-29T23:08:59.939Z,1.05
2023-11-29T23:11:26.513Z,1.02
2023-11-29T23:13:53.221Z,1.03
2023-11-29T23:16:20.139Z,1.03
2023-11-29T23:18:48.051Z,1.00
2023-11-29T23:21:14.788Z,1.01
2023-11-29T23:23:41.447Z,0.98
2023-11-29T23:26:07.922Z,1.01
2023-11-29T23:28:34.795Z,0.98
2023-11-29T23:31:01.804Z,0.99
2023-11-29T23:33:28.973Z,0.97
2023-11-29T23:35:57.147Z,0.96
2023-11-29T23:38:24.008Z,0.93
2023-11-29T23:40:50.542Z,0.96
2023-11-29T23:43:17.116Z,0.96
2023-11-29T23:45:43.601Z,0.95
2023-11-29T23:48:10.814Z,0.92
2023-11-29T23:50:37.425Z,0.95
2023-11-29T23:53:03.902Z,0.93
2023-11-29T23:55:30.696Z,0.90
2023-11-29T23:57:57.526Z,0.94
